Weather forecast for Bozoy (Бозой)

Russia, 588 m
N53.011, E104.880


Sounding

Red line — air temperature ˚C.
Blue line — thermal bubble temperature ˚C.
Green line — dew point temperature ˚C.
Wind speed is in meters per second.

Table forecast

GFS 0.25˚ model

temp. wind gust humid. clouds prec. press. hpbl
Mon25 00:00 -8 333.0 nnw 2 2 88 34 0.0 1020 21
03:00 -9 58.0 ene 1 1 88 34 0.0 1020 21
06:00 -10 79.0 e 2 2 90 19 0.0 1019 21
09:00 -9 75.0 ene 2 3 90 43 0.1 1019 56
12:00 -3 99.0 e 3 5 86 100 0.2 1016 330
15:00 -0 119.0 ese 2 3 90 99 0.5 1014 393
18:00 0 353.0 n 1 2 94 100 1.3 1014 232
21:00 -2 310.0 nw 3 4 94 100 1.4 1017 89
 
Tue26 00:00 -4 310.0 nw 2 3 95 100 0.1 1020 23
03:00 -4 299.0 wnw 3 6 94 100 0.2 1022 134
06:00 -6 319.0 nw 3 4 93 99 0.0 1025 95
09:00 -7 5.0 n 4 8 87 99 0.3 1029 430
12:00 -5 351.0 n 3 4 76 84 0.1 1031 868
15:00 -3 313.0 nw 4 5 71 92 0.3 1032 1144
18:00 -3 310.0 nw 4 6 72 100 0.1 1033 1114
21:00 -7 312.0 nw 4 7 82 75 0.1 1036 116
 
Wed27 00:00 -10 329.0 nnw 3 3 89 5 0.0 1038 28
03:00 -12 319.0 nw 2 2 89 2 0.0 1038 21
06:00 -13 317.0 nw 1 2 90 0 0.0 1038 21
09:00 -12 309.0 nw 0 1 90 0 0.0 1038 21
12:00 -7 229.0 sw 2 2 78 15 0.0 1035 416
15:00 -4 227.0 sw 2 2 70 39 0.0 1033 740
18:00 -4 234.0 sw 2 2 76 100 0.0 1031 730
21:00 -8 251.0 wsw 1 1 80 96 0.0 1032 21
 
Thu28 00:00 -10 313.0 nw 1 1 85 66 0.0 1033 21
03:00 -11 1.0 n 1 1 88 2 0.0 1034 21
06:00 -12 82.0 e 1 1 90 0 0.0 1033 21
09:00 -11 101.0 e 1 1 90 0 0.0 1033 21
12:00 -5 137.0 se 2 2 74 0 0.0 1030 312
15:00 -2 229.0 sw 1 1 60 18 0.0 1028 498
18:00 -1 274.0 w 2 2 72 85 0.0 1029 49
21:00 -5 294.0 wnw 3 4 86 91 0.0 1031 44
 
Fri29 00:00 -6 279.0 w 3 6 93 100 0.0 1032 96
03:00 -5 294.0 wnw 4 10 90 78 0.0 1032 261
06:00 -7 288.0 wnw 4 8 92 38 0.0 1033 147
09:00 -7 294.0 wnw 3 5 93 22 0.0 1035 115
12:00 -3 283.0 wnw 3 4 83 18 0.0 1034 518
15:00 -1 253.0 wsw 2 2 75 21 0.0 1031 825
18:00 -0 209.0 ssw 1 2 75 6 0.0 1029 104
21:00 -5 110.0 ese 2 2 79 3 0.0 1029 21
 

0.029 s